createdAt,value
2018-03-29T00:00:19.140Z,6.40
2018-03-29T00:04:52.435Z,6.50
2018-03-29T00:09:25.703Z,6.50
2018-03-29T00:13:58.973Z,6.50
2018-03-29T00:18:32.261Z,6.40
2018-03-29T00:23:05.963Z,6.40
2018-03-29T00:27:39.595Z,6.50
2018-03-29T00:32:12.879Z,6.50
2018-03-29T00:36:46.904Z,6.50
2018-03-29T00:41:20.924Z,6.40
2018-03-29T00:45:54.994Z,6.40
2018-03-29T00:50:28.253Z,6.40
2018-03-29T00:55:01.976Z,6.40
2018-03-29T00:59:36.006Z,6.40
2018-03-29T01:04:10.048Z,6.40
2018-03-29T01:08:43.342Z,6.30
2018-03-29T01:13:17.384Z,6.20
2018-03-29T01:17:50.636Z,6.20
2018-03-29T01:22:23.904Z,6.20
2018-03-29T01:26:57.789Z,6.10
2018-03-29T01:31:31.058Z,6.10
2018-03-29T01:36:04.430Z,6.20
2018-03-29T01:40:38.472Z,6.00
2018-03-29T01:45:12.743Z,6.00
2018-03-29T01:49:46.097Z,6.00
2018-03-29T01:54:20.135Z,5.80
2018-03-29T01:58:53.692Z,5.70
2018-03-29T02:03:26.966Z,5.70
2018-03-29T02:08:00.353Z,5.60
2018-03-29T02:12:34.386Z,5.20
2018-03-29T02:17:08.383Z,5.10
2018-03-29T02:21:41.656Z,5.10
2018-03-29T02:26:14.881Z,5.20
2018-03-29T02:30:49.157Z,5.20
2018-03-29T02:35:23.190Z,5.10
2018-03-29T02:39:56.478Z,5.00
2018-03-29T02:44:30.521Z,5.10
2018-03-29T02:49:04.541Z,5.30
2018-03-29T02:53:38.556Z,5.20
2018-03-29T02:58:11.976Z,5.20
2018-03-29T03:02:46.118Z,5.50
2018-03-29T03:07:19.624Z,5.40
2018-03-29T03:11:53.647Z,5.60
2018-03-29T03:16:27.681Z,5.50
2018-03-29T03:21:01.687Z,5.50
2018-03-29T03:25:35.028Z,5.50
2018-03-29T03:30:08.343Z,5.50
2018-03-29T03:34:41.568Z,5.40
2018-03-29T03:39:15.455Z,5.30
2018-03-29T03:43:49.491Z,5.20
2018-03-29T03:48:22.801Z,5.20
2018-03-29T03:52:56.059Z,5.30
2018-03-29T03:57:30.141Z,5.30
2018-03-29T04:02:04.193Z,5.30
2018-03-29T04:06:37.478Z,5.40
2018-03-29T04:11:10.735Z,5.50
2018-03-29T04:15:44.082Z,5.50
2018-03-29T04:20:17.378Z,5.60
2018-03-29T04:24:51.420Z,5.50
2018-03-29T04:29:25.506Z,5.40
2018-03-29T04:33:58.773Z,5.30
2018-03-29T04:38:31.996Z,5.40
2018-03-29T04:43:06.082Z,5.30
2018-03-29T04:47:40.124Z,5.20
2018-03-29T04:52:13.416Z,5.10
2018-03-29T04:56:48.079Z,5.20
2018-03-29T05:01:21.411Z,5.20
2018-03-29T05:05:54.706Z,5.20
2018-03-29T05:10:28.084Z,5.20
2018-03-29T05:15:02.769Z,4.90
2018-03-29T05:19:36.058Z,4.90
2018-03-29T05:24:09.332Z,4.80
2018-03-29T05:28:42.817Z,4.60
2018-03-29T05:33:16.266Z,4.50
2018-03-29T05:37:50.345Z,4.40
2018-03-29T05:42:23.577Z,4.30
2018-03-29T05:46:56.880Z,4.50
2018-03-29T05:51:30.173Z,4.50
2018-03-29T05:56:03.442Z,4.50
2018-03-29T06:00:36.761Z,4.60
2018-03-29T06:05:10.047Z,4.90
2018-03-29T06:09:44.078Z,5.10
2018-03-29T06:14:18.093Z,5.30
2018-03-29T06:18:52.226Z,5.30
2018-03-29T06:23:26.248Z,5.30
2018-03-29T06:28:00.298Z,5.40
2018-03-29T06:32:33.896Z,5.30
2018-03-29T06:37:07.145Z,5.40
2018-03-29T06:41:40.442Z,5.40
2018-03-29T06:46:13.667Z,5.50
2018-03-29T06:50:46.974Z,5.50
2018-03-29T06:55:20.250Z,5.50
2018-03-29T06:59:53.503Z,5.60
2018-03-29T07:04:26.752Z,5.60
2018-03-29T07:09:00.051Z,5.80
2018-03-29T07:13:34.106Z,6.10
2018-03-29T07:18:07.488Z,6.00
2018-03-29T07:22:41.500Z,6.30
2018-03-29T07:27:14.770Z,6.30
2018-03-29T07:31:48.058Z,6.30
2018-03-29T07:36:21.281Z,6.40
2018-03-29T07:40:54.551Z,6.60
2018-03-29T07:45:28.691Z,6.90
2018-03-29T07:50:02.699Z,6.90
2018-03-29T07:54:36.783Z,6.80
2018-03-29T07:59:10.052Z,6.70
2018-03-29T08:03:44.089Z,6.70
2018-03-29T08:08:17.498Z,7.00
2018-03-29T08:12:50.764Z,7.50
2018-03-29T08:17:24.012Z,9.00
2018-03-29T08:21:57.292Z,11.30
2018-03-29T08:26:30.857Z,11.80
2018-03-29T08:31:04.139Z,12.40
2018-03-29T08:35:37.368Z,12.00
2018-03-29T08:40:10.745Z,11.00
2018-03-29T08:44:45.084Z,11.70
2018-03-29T08:49:19.102Z,13.00
2018-03-29T08:53:53.131Z,14.70
2018-03-29T08:58:27.115Z,15.20
2018-03-29T09:03:00.471Z,15.20
2018-03-29T09:07:33.739Z,15.20
2018-03-29T09:12:07.008Z,14.20
2018-03-29T09:16:40.252Z,14.00
2018-03-29T09:21:13.508Z,12.80
2018-03-29T09:25:47.626Z,12.20
2018-03-29T09:30:22.294Z,13.00
2018-03-29T09:34:55.676Z,13.00
2018-03-29T09:39:29.715Z,15.00
2018-03-29T09:44:03.114Z,14.90
2018-03-29T09:48:37.119Z,15.30
2018-03-29T09:53:10.380Z,15.20
2018-03-29T09:57:43.794Z,14.80
2018-03-29T10:02:18.874Z,13.70
2018-03-29T10:06:58.564Z,12.50
2018-03-29T10:11:32.632Z,12.30
2018-03-29T10:16:05.928Z,12.30
2018-03-29T10:20:39.345Z,12.00
2018-03-29T10:25:12.939Z,12.70
2018-03-29T10:29:46.190Z,12.50
2018-03-29T10:34:19.479Z,12.00
2018-03-29T10:38:52.715Z,15.50
2018-03-29T10:43:25.961Z,18.40
2018-03-29T10:48:00.060Z,19.00
2018-03-29T10:52:33.419Z,18.90
2018-03-29T10:57:06.685Z,17.40
2018-03-29T11:01:39.935Z,15.20
2018-03-29T11:06:13.174Z,13.40
2018-03-29T11:10:46.432Z,12.60
2018-03-29T11:15:20.597Z,11.50
2018-03-29T11:19:53.974Z,11.50
2018-03-29T11:24:27.997Z,10.70
2018-03-29T11:29:02.016Z,10.50
2018-03-29T11:33:35.280Z,10.40
2018-03-29T11:38:08.561Z,10.30
2018-03-29T11:42:41.861Z,10.30
2018-03-29T11:47:15.151Z,10.30
2018-03-29T11:51:49.183Z,10.10
2018-03-29T11:56:23.198Z,10.10
2018-03-29T12:00:57.433Z,10.00
2018-03-29T12:05:31.489Z,10.40
2018-03-29T12:10:04.836Z,10.40
2018-03-29T12:14:38.097Z,10.10
2018-03-29T12:19:11.368Z,9.90
2018-03-29T12:23:45.437Z,9.70
2018-03-29T12:28:18.728Z,9.70
2018-03-29T12:32:52.961Z,9.20
2018-03-29T12:37:27.000Z,9.40
2018-03-29T12:42:00.299Z,9.30
2018-03-29T12:46:35.095Z,11.90
2018-03-29T12:51:09.145Z,14.50
2018-03-29T12:55:43.192Z,14.40
2018-03-29T13:00:17.232Z,16.60
2018-03-29T13:04:50.526Z,16.50
2018-03-29T13:09:24.752Z,18.40
2018-03-29T13:13:58.802Z,17.80
2018-03-29T13:18:32.088Z,17.70
2018-03-29T13:23:06.159Z,14.90
2018-03-29T13:27:39.584Z,14.80
2018-03-29T13:32:13.120Z,13.60
2018-03-29T13:36:46.605Z,13.10
2018-03-29T13:41:20.192Z,13.30
2018-03-29T13:45:53.441Z,13.70
2018-03-29T13:50:26.701Z,15.90
2018-03-29T13:54:59.923Z,17.50
2018-03-29T13:59:33.203Z,17.80
2018-03-29T14:04:07.235Z,17.10
2018-03-29T14:08:41.355Z,17.00
2018-03-29T14:13:15.347Z,17.40
2018-03-29T14:17:49.436Z,17.40
2018-03-29T14:22:22.717Z,18.00
2018-03-29T14:26:56.745Z,17.00
2018-03-29T14:31:30.781Z,16.50
2018-03-29T14:36:04.210Z,16.40
2018-03-29T14:40:37.529Z,15.90
2018-03-29T14:45:11.333Z,15.20
2018-03-29T14:49:44.974Z,14.00
2018-03-29T14:54:18.258Z,13.50
2018-03-29T14:58:51.512Z,13.10
2018-03-29T15:03:24.772Z,12.90
2018-03-29T15:07:58.078Z,12.90
2018-03-29T15:12:31.301Z,13.00
2018-03-29T15:17:04.560Z,12.60
2018-03-29T15:21:37.812Z,12.20
2018-03-29T15:26:11.032Z,12.30
2018-03-29T15:30:44.292Z,12.40
2018-03-29T15:35:18.536Z,12.50
2018-03-29T15:39:52.065Z,12.40
2018-03-29T15:44:25.291Z,12.30
2018-03-29T15:48:58.682Z,12.40
2018-03-29T15:53:32.642Z,12.10
2018-03-29T15:58:05.910Z,12.00
2018-03-29T16:02:39.937Z,11.90
2018-03-29T16:07:14.084Z,11.80
2018-03-29T16:11:47.383Z,11.80
2018-03-29T16:16:20.705Z,11.60
2018-03-29T16:20:53.947Z,11.50
2018-03-29T16:25:27.182Z,11.30
2018-03-29T16:30:01.193Z,10.90
2018-03-29T16:34:34.421Z,10.90
2018-03-29T16:39:08.545Z,10.70
2018-03-29T16:43:42.815Z,10.70
2018-03-29T16:48:16.080Z,10.70
2018-03-29T16:52:50.195Z,10.30
2018-03-29T16:57:24.239Z,10.00
2018-03-29T17:01:58.234Z,9.80
2018-03-29T17:06:31.489Z,9.70
2018-03-29T17:11:04.775Z,9.70
2018-03-29T17:15:38.911Z,9.60
2018-03-29T17:20:12.972Z,9.50
2018-03-29T17:24:46.246Z,9.40
2018-03-29T17:29:20.679Z,9.20
2018-03-29T17:33:54.814Z,9.10
2018-03-29T17:38:28.848Z,8.90
2018-03-29T17:43:02.063Z,8.80
2018-03-29T17:47:36.068Z,8.70
2018-03-29T17:52:10.050Z,8.30
2018-03-29T17:56:43.284Z,8.30
2018-03-29T18:01:16.623Z,8.10
2018-03-29T18:05:50.037Z,8.00
2018-03-29T18:10:23.344Z,8.00
2018-03-29T18:14:56.656Z,7.90
2018-03-29T18:19:29.900Z,7.70
2018-03-29T18:24:03.376Z,7.50
2018-03-29T18:28:36.688Z,7.40
2018-03-29T18:33:09.997Z,7.20
2018-03-29T18:37:43.252Z,7.00
2018-03-29T18:42:16.608Z,7.10
2018-03-29T18:46:50.524Z,7.10
2018-03-29T18:51:24.566Z,6.70
2018-03-29T18:55:57.837Z,6.60
2018-03-29T19:00:31.105Z,6.20
2018-03-29T19:05:04.368Z,6.20
2018-03-29T19:09:37.638Z,6.20
2018-03-29T19:14:11.745Z,6.10
2018-03-29T19:18:45.031Z,6.00
2018-03-29T19:23:18.323Z,5.80
2018-03-29T19:27:52.375Z,5.20
2018-03-29T19:32:25.641Z,5.20
2018-03-29T19:36:59.633Z,5.10
2018-03-29T19:41:32.893Z,5.10
2018-03-29T19:46:07.019Z,5.20
2018-03-29T19:50:42.097Z,5.30
2018-03-29T19:55:15.358Z,5.20
2018-03-29T19:59:49.864Z,5.30
2018-03-29T20:04:23.836Z,5.30
2018-03-29T20:08:57.869Z,5.10
2018-03-29T20:13:32.097Z,4.80
2018-03-29T20:18:06.206Z,4.90
2018-03-29T20:22:39.455Z,4.90
2018-03-29T20:27:17.534Z,4.90
2018-03-29T20:31:51.360Z,4.90
2018-03-29T20:36:25.372Z,4.90
2018-03-29T20:40:58.712Z,4.80
2018-03-29T20:45:32.841Z,4.80
2018-03-29T20:50:06.961Z,4.80
2018-03-29T20:54:41.014Z,4.80
2018-03-29T20:59:14.296Z,4.70
2018-03-29T21:03:48.313Z,4.40
2018-03-29T21:08:21.757Z,4.40
2018-03-29T21:12:55.055Z,4.50
2018-03-29T21:17:29.253Z,4.40
2018-03-29T21:22:02.500Z,4.40
2018-03-29T21:26:35.783Z,4.30
2018-03-29T21:31:09.323Z,4.40
2018-03-29T21:35:42.922Z,4.40
2018-03-29T21:40:16.947Z,4.50
2018-03-29T21:44:50.984Z,4.30
2018-03-29T21:49:25.107Z,4.30
2018-03-29T21:53:59.119Z,4.10
2018-03-29T21:58:33.198Z,4.10
2018-03-29T22:03:06.452Z,4.00
2018-03-29T22:07:40.488Z,4.00
2018-03-29T22:12:14.604Z,3.90
2018-03-29T22:16:47.851Z,3.90
2018-03-29T22:21:21.157Z,4.00
2018-03-29T22:25:54.510Z,4.10
2018-03-29T22:30:28.166Z,4.00
2018-03-29T22:35:02.192Z,4.10
2018-03-29T22:39:36.319Z,4.00
2018-03-29T22:44:10.343Z,4.00
2018-03-29T22:48:44.473Z,4.10
2018-03-29T22:53:18.601Z,4.00
2018-03-29T22:57:52.628Z,4.00
2018-03-29T23:02:26.656Z,4.20
2018-03-29T23:07:00.780Z,4.20
2018-03-29T23:11:34.908Z,4.20
2018-03-29T23:16:08.943Z,4.30
2018-03-29T23:20:43.163Z,4.20
2018-03-29T23:25:17.286Z,4.20
2018-03-29T23:29:51.619Z,4.10
2018-03-29T23:34:25.683Z,4.00
2018-03-29T23:38:58.935Z,4.00
2018-03-29T23:43:34.856Z,3.90
2018-03-29T23:48:08.139Z,3.80
2018-03-29T23:52:42.411Z,3.70
2018-03-29T23:57:15.635Z,3.60
